createdAt,value
2022-08-16T00:00:38.591Z,6.95
2022-08-16T00:03:13.161Z,6.35
2022-08-16T00:05:48.065Z,8.43
2022-08-16T00:08:35.789Z,6.60
2022-08-16T00:11:08.080Z,6.18
2022-08-16T00:13:53.309Z,5.10
2022-08-16T00:17:06.038Z,5.32
2022-08-16T00:19:18.312Z,5.22
2022-08-16T00:21:53.316Z,5.68
2022-08-16T00:24:32.660Z,5.30
2022-08-16T00:27:03.455Z,5.32
2022-08-16T00:29:33.638Z,5.15
2022-08-16T00:32:06.499Z,5.15
2022-08-16T00:34:43.465Z,5.05
2022-08-16T00:37:17.099Z,5.25
2022-08-16T00:39:58.028Z,5.65
2022-08-16T00:42:32.031Z,5.07
2022-08-16T00:45:08.416Z,5.43
2022-08-16T00:47:48.918Z,5.82
2022-08-16T00:50:36.311Z,5.38
2022-08-16T00:53:07.935Z,4.65
2022-08-16T00:55:40.733Z,4.90
2022-08-16T00:58:13.033Z,5.05
2022-08-16T01:00:54.048Z,4.97
2022-08-16T01:03:30.126Z,4.82
2022-08-16T01:06:40.850Z,6.32
2022-08-16T01:08:55.725Z,11.27
2022-08-16T01:11:30.024Z,6.40
2022-08-16T01:14:04.887Z,5.38
2022-08-16T01:16:35.166Z,5.03
2022-08-16T01:19:11.399Z,5.47
2022-08-16T01:21:51.678Z,4.70
2022-08-16T01:24:53.722Z,4.80
2022-08-16T01:27:23.430Z,4.93
2022-08-16T01:30:01.890Z,4.97
2022-08-16T01:32:38.780Z,4.90
2022-08-16T01:35:17.669Z,4.75
2022-08-16T01:37:53.966Z,4.50
2022-08-16T01:40:31.607Z,4.50
2022-08-16T01:43:01.065Z,4.32
2022-08-16T01:45:40.706Z,4.57
2022-08-16T01:48:19.620Z,4.95
2022-08-16T01:51:09.788Z,4.68
2022-08-16T01:53:43.896Z,5.03
2022-08-16T01:56:24.233Z,4.40
2022-08-16T01:58:56.051Z,5.15
2022-08-16T02:01:28.095Z,4.30
2022-08-16T02:04:10.195Z,4.93
2022-08-16T02:06:45.928Z,4.97
2022-08-16T02:09:20.977Z,5.07
2022-08-16T02:11:56.683Z,5.75
2022-08-16T02:14:31.553Z,4.97
2022-08-16T02:17:04.737Z,4.45
2022-08-16T02:19:58.688Z,4.82
2022-08-16T02:22:33.542Z,5.00
2022-08-16T02:25:09.934Z,4.38
2022-08-16T02:27:43.634Z,5.00
2022-08-16T02:30:36.778Z,5.53
2022-08-16T02:33:11.998Z,5.00
2022-08-16T02:35:49.966Z,4.93
2022-08-16T02:38:26.699Z,5.25
2022-08-16T02:40:57.634Z,5.00
2022-08-16T02:43:33.434Z,5.22
2022-08-16T02:46:08.881Z,5.00
2022-08-16T02:48:39.842Z,5.22
2022-08-16T02:51:23.462Z,5.20
2022-08-16T02:53:53.565Z,4.88
2022-08-16T02:56:25.628Z,5.63
2022-08-16T02:59:11.477Z,5.18
2022-08-16T03:01:44.383Z,5.00
2022-08-16T03:04:28.769Z,6.25
2022-08-16T03:07:11.801Z,4.95
2022-08-16T03:09:44.927Z,5.07
2022-08-16T03:12:19.403Z,4.63
2022-08-16T03:14:52.496Z,5.47
2022-08-16T03:17:24.698Z,5.30
2022-08-16T03:20:05.601Z,6.15
2022-08-16T03:22:40.327Z,4.70
2022-08-16T03:25:18.129Z,5.03
2022-08-16T03:27:59.931Z,5.00
2022-08-16T03:30:34.378Z,5.22
2022-08-16T03:33:07.452Z,6.03
2022-08-16T03:35:45.773Z,4.93
2022-08-16T03:38:34.536Z,5.20
2022-08-16T03:41:17.099Z,6.07
2022-08-16T03:43:59.748Z,5.60
2022-08-16T03:46:47.312Z,5.95
2022-08-16T03:49:37.423Z,5.35
2022-08-16T03:52:13.579Z,5.45
2022-08-16T03:54:57.760Z,5.38
2022-08-16T03:57:36.263Z,4.95
2022-08-16T04:00:35.275Z,5.70
2022-08-16T04:03:14.896Z,6.05
2022-08-16T04:05:51.459Z,5.00
2022-08-16T04:08:27.833Z,4.90
2022-08-16T04:11:04.944Z,5.28
2022-08-16T04:14:00.708Z,4.97
2022-08-16T04:16:38.084Z,5.70
2022-08-16T04:19:51.639Z,4.93
2022-08-16T04:22:48.985Z,4.93
2022-08-16T04:25:23.292Z,5.32
2022-08-16T04:28:51.710Z,5.15
2022-08-16T04:31:01.371Z,5.38
2022-08-16T04:33:50.936Z,5.22
2022-08-16T04:36:32.680Z,5.38
2022-08-16T04:39:03.326Z,4.88
2022-08-16T04:41:37.614Z,5.45
2022-08-16T04:44:52.819Z,5.75
2022-08-16T04:47:21.603Z,5.20
2022-08-16T04:49:59.269Z,4.40
2022-08-16T04:52:36.662Z,5.13
2022-08-16T04:55:16.978Z,5.13
2022-08-16T05:00:34.002Z,6.95
2022-08-16T05:03:16.031Z,6.40
2022-08-16T05:06:07.025Z,6.38
2022-08-16T05:08:47.422Z,5.50
2022-08-16T05:11:34.731Z,5.65
2022-08-16T05:14:07.719Z,5.40
2022-08-16T05:16:46.114Z,4.70
2022-08-16T05:19:19.312Z,5.25
2022-08-16T05:22:19.178Z,4.80
2022-08-16T05:24:56.824Z,4.82
2022-08-16T05:27:29.481Z,4.35
2022-08-16T05:30:35.662Z,4.95
2022-08-16T05:33:27.306Z,4.75
2022-08-16T05:36:03.640Z,4.88
2022-08-16T05:38:41.807Z,4.55
2022-08-16T05:41:22.020Z,4.40
2022-08-16T05:43:59.203Z,4.32
2022-08-16T05:46:45.104Z,4.50
2022-08-16T05:49:22.432Z,4.25
2022-08-16T05:52:00.286Z,4.63
2022-08-16T05:54:32.210Z,6.15
2022-08-16T05:57:06.904Z,4.57
2022-08-16T05:59:45.626Z,4.88
2022-08-16T06:02:17.781Z,4.65
2022-08-16T06:04:49.487Z,4.45
2022-08-16T06:07:24.991Z,4.50
2022-08-16T06:10:32.507Z,4.68
2022-08-16T06:13:07.421Z,4.13
2022-08-16T06:15:41.527Z,3.90
2022-08-16T06:18:12.377Z,4.30
2022-08-16T06:20:55.490Z,4.35
2022-08-16T06:23:28.209Z,4.00
2022-08-16T06:26:07.764Z,4.20
2022-08-16T06:28:44.129Z,4.40
2022-08-16T06:31:26.046Z,4.03
2022-08-16T06:33:59.158Z,4.07
2022-08-16T06:36:33.461Z,3.80
2022-08-16T06:39:25.671Z,4.00
2022-08-16T06:42:01.207Z,4.05
2022-08-16T06:44:53.067Z,3.67
2022-08-16T06:50:29.463Z,4.00
2022-08-16T06:53:09.019Z,3.47
2022-08-16T06:55:54.543Z,3.58
2022-08-16T06:58:31.716Z,3.58
2022-08-16T07:01:15.007Z,4.20
2022-08-16T07:03:55.618Z,3.88
2022-08-16T07:06:32.816Z,3.20
2022-08-16T07:09:09.767Z,3.30
2022-08-16T07:11:51.767Z,3.13
2022-08-16T07:14:35.390Z,3.53
2022-08-16T07:17:11.286Z,3.20
2022-08-16T07:20:03.499Z,3.65
2022-08-16T07:22:59.428Z,2.95
2022-08-16T07:25:48.951Z,2.90
2022-08-16T07:28:24.244Z,3.05
2022-08-16T07:31:00.270Z,2.63
2022-08-16T07:33:52.205Z,3.63
2022-08-16T07:36:27.096Z,3.17
2022-08-16T07:39:01.195Z,3.20
2022-08-16T07:41:37.420Z,3.08
2022-08-16T07:44:16.428Z,3.13
2022-08-16T07:46:55.448Z,2.85
2022-08-16T07:49:32.447Z,2.58
2022-08-16T07:52:18.901Z,2.78
2022-08-16T07:54:53.434Z,2.70
2022-08-16T07:57:26.354Z,3.20
2022-08-16T07:59:57.522Z,2.75
2022-08-16T08:02:28.900Z,2.75
2022-08-16T08:05:05.523Z,2.83
2022-08-16T08:07:36.814Z,2.88
2022-08-16T08:10:11.068Z,3.22
2022-08-16T08:12:43.859Z,2.70
2022-08-16T08:15:15.516Z,3.30
2022-08-16T08:17:55.366Z,2.95
2022-08-16T08:20:36.058Z,2.97
2022-08-16T08:23:12.306Z,3.13
2022-08-16T08:25:53.947Z,2.85
2022-08-16T08:28:33.812Z,3.15
2022-08-16T08:31:11.718Z,2.83
2022-08-16T08:33:51.603Z,2.60
2022-08-16T08:36:32.940Z,3.17
2022-08-16T08:39:12.905Z,2.70
2022-08-16T08:41:46.509Z,3.05
2022-08-16T08:44:29.835Z,2.90
2022-08-16T08:47:09.344Z,3.20
2022-08-16T08:49:46.323Z,3.10
2022-08-16T08:52:34.404Z,2.65
2022-08-16T08:55:17.001Z,3.65
2022-08-16T08:57:48.539Z,3.50
2022-08-16T09:00:34.423Z,2.80
2022-08-16T09:03:25.314Z,2.72
2022-08-16T09:05:58.368Z,3.10
2022-08-16T09:08:31.641Z,2.97
2022-08-16T09:11:08.969Z,3.13
2022-08-16T09:13:47.100Z,3.10
2022-08-16T09:17:03.492Z,3.08
2022-08-16T09:19:10.308Z,3.20
2022-08-16T09:21:41.143Z,3.47
2022-08-16T09:24:13.228Z,2.72
2022-08-16T09:27:05.944Z,2.80
2022-08-16T09:29:45.742Z,3.05
2022-08-16T09:32:25.617Z,2.90
2022-08-16T09:35:01.825Z,2.80
2022-08-16T09:37:36.820Z,3.08
2022-08-16T09:40:33.080Z,3.00
2022-08-16T09:43:46.422Z,2.70
2022-08-16T09:46:45.196Z,2.90
2022-08-16T09:48:59.457Z,3.10
2022-08-16T09:51:36.597Z,3.05
2022-08-16T09:54:09.657Z,2.80
2022-08-16T09:56:52.835Z,2.80
2022-08-16T09:59:25.485Z,2.70
2022-08-16T10:02:01.119Z,3.05
2022-08-16T10:04:54.313Z,3.05
2022-08-16T10:07:25.044Z,3.60
2022-08-16T10:09:56.490Z,3.35
2022-08-16T10:12:55.742Z,3.13
2022-08-16T10:15:30.047Z,3.42
2022-08-16T10:18:02.500Z,3.20
2022-08-16T10:20:51.161Z,3.20
2022-08-16T10:23:22.996Z,3.20
2022-08-16T10:27:20.232Z,3.50
2022-08-16T10:28:52.350Z,3.20
2022-08-16T10:31:44.130Z,3.95
2022-08-16T10:34:31.349Z,3.30
2022-08-16T10:37:03.501Z,3.78
2022-08-16T10:39:41.792Z,3.70
2022-08-16T10:42:15.470Z,3.83
2022-08-16T10:44:53.846Z,3.40
2022-08-16T10:47:25.183Z,3.78
2022-08-16T10:49:56.079Z,3.78
2022-08-16T10:58:11.731Z,3.90
2022-08-16T11:00:46.229Z,3.55
2022-08-16T11:06:15.120Z,3.60
2022-08-16T11:09:20.855Z,3.60
2022-08-16T11:17:11.410Z,3.90
2022-08-16T11:22:42.187Z,4.55
2022-08-16T11:29:12.195Z,4.40
2022-08-16T11:31:09.475Z,4.07
2022-08-16T11:33:53.346Z,4.22
2022-08-16T11:36:25.073Z,3.85
2022-08-16T11:39:05.634Z,3.55
2022-08-16T11:41:43.567Z,3.92
2022-08-16T11:44:14.099Z,4.00
2022-08-16T11:46:50.131Z,4.65
2022-08-16T11:49:25.940Z,3.55
2022-08-16T11:51:56.438Z,4.07
2022-08-16T11:54:34.294Z,3.65
2022-08-16T11:57:09.150Z,4.25
2022-08-16T11:59:41.307Z,4.10
2022-08-16T12:02:31.907Z,4.20
2022-08-16T12:05:09.759Z,4.15
2022-08-16T12:07:42.632Z,4.05
2022-08-16T12:10:21.293Z,4.13
2022-08-16T12:12:57.867Z,4.70
2022-08-16T12:15:29.266Z,4.30
2022-08-16T12:18:03.460Z,3.92
2022-08-16T12:20:45.802Z,4.13
2022-08-16T12:23:15.734Z,3.50
2022-08-16T12:25:48.175Z,4.15
2022-08-16T12:28:36.980Z,3.75
2022-08-16T12:31:19.207Z,3.35
2022-08-16T12:33:57.689Z,3.58
2022-08-16T12:36:30.148Z,4.10
2022-08-16T12:39:03.735Z,3.78
2022-08-16T12:41:37.954Z,3.65
2022-08-16T12:44:26.811Z,4.13
2022-08-16T12:47:21.128Z,3.75
2022-08-16T12:49:54.314Z,3.75
2022-08-16T12:55:16.989Z,3.55
2022-08-16T12:57:58.206Z,3.85
2022-08-16T13:00:33.291Z,4.15
2022-08-16T13:03:07.877Z,4.22
2022-08-16T13:05:47.935Z,3.50
2022-08-16T13:08:30.988Z,4.57
2022-08-16T13:11:15.361Z,4.03
2022-08-16T13:14:01.119Z,4.32
2022-08-16T13:16:37.717Z,4.32
2022-08-16T13:19:10.592Z,4.13
2022-08-16T13:21:50.698Z,3.88
2022-08-16T13:24:35.431Z,4.32
2022-08-16T13:27:12.988Z,4.00
2022-08-16T13:29:57.366Z,4.68
2022-08-16T13:32:40.212Z,4.53
2022-08-16T13:35:15.868Z,4.75
2022-08-16T13:37:50.831Z,4.40
2022-08-16T13:40:26.430Z,4.25
2022-08-16T13:43:01.566Z,4.68
2022-08-16T13:45:44.919Z,4.50
2022-08-16T13:48:21.891Z,4.45
2022-08-16T13:51:07.705Z,4.22
2022-08-16T13:53:38.287Z,4.20
2022-08-16T13:56:24.757Z,3.97
2022-08-16T13:58:55.713Z,4.85
2022-08-16T14:01:27.768Z,6.15
2022-08-16T14:04:01.394Z,4.88
2022-08-16T14:06:34.497Z,4.85
2022-08-16T14:09:06.560Z,4.65
2022-08-16T14:11:38.454Z,5.10
2022-08-16T14:14:11.248Z,4.90
2022-08-16T14:16:41.691Z,5.00
2022-08-16T14:19:22.405Z,5.38
2022-08-16T14:22:14.610Z,5.53
2022-08-16T14:24:50.314Z,5.18
2022-08-16T14:27:31.763Z,5.90
2022-08-16T14:30:05.668Z,5.57
2022-08-16T14:32:35.974Z,5.32
2022-08-16T14:35:14.103Z,5.10
2022-08-16T14:37:52.622Z,5.35
2022-08-16T14:40:29.142Z,5.28
2022-08-16T14:43:07.040Z,5.07
2022-08-16T14:45:37.510Z,5.57
2022-08-16T14:48:09.615Z,5.68
2022-08-16T14:50:41.328Z,5.47
2022-08-16T14:53:12.289Z,6.28
2022-08-16T14:55:52.224Z,6.50
2022-08-16T14:58:35.080Z,7.55
2022-08-16T15:01:10.141Z,9.55
2022-08-16T15:03:44.917Z,8.25
2022-08-16T15:06:16.450Z,7.88
2022-08-16T15:08:46.863Z,8.60
2022-08-16T15:11:17.791Z,8.00
2022-08-16T15:13:48.957Z,8.00
2022-08-16T15:16:29.022Z,8.82
2022-08-16T15:19:01.666Z,8.60
2022-08-16T15:21:42.492Z,8.57
2022-08-16T15:24:16.630Z,8.27
2022-08-16T15:26:55.363Z,8.27
2022-08-16T15:29:27.173Z,7.82
2022-08-16T15:32:01.415Z,8.60
2022-08-16T15:34:32.996Z,7.93
2022-08-16T15:37:04.160Z,7.47
2022-08-16T15:39:39.716Z,7.97
2022-08-16T15:42:15.624Z,8.45
2022-08-16T15:45:00.144Z,7.07
2022-08-16T15:47:35.336Z,6.90
2022-08-16T15:50:14.890Z,6.57
2022-08-16T15:52:47.076Z,6.68
2022-08-16T15:55:29.710Z,6.68
2022-08-16T15:58:35.032Z,6.13
2022-08-16T16:00:59.312Z,7.10
2022-08-16T16:03:29.310Z,7.85
2022-08-16T16:06:05.999Z,7.88
2022-08-16T16:08:36.309Z,7.35
2022-08-16T16:11:12.034Z,7.90
2022-08-16T16:13:44.220Z,6.82
2022-08-16T16:16:19.793Z,7.32
2022-08-16T16:18:52.314Z,7.78
2022-08-16T16:21:23.145Z,7.13
2022-08-16T16:23:57.740Z,7.57
2022-08-16T16:26:31.944Z,7.45
2022-08-16T16:29:14.537Z,7.95
2022-08-16T16:31:51.376Z,7.72
2022-08-16T16:34:32.122Z,8.15
2022-08-16T16:37:05.262Z,8.25
2022-08-16T16:39:45.728Z,7.70
2022-08-16T16:42:29.127Z,7.57
2022-08-16T16:45:03.165Z,7.95
2022-08-16T16:47:41.981Z,8.50
2022-08-16T16:50:16.344Z,8.10
2022-08-16T16:52:48.436Z,7.38
2022-08-16T16:55:18.638Z,8.18
2022-08-16T16:58:17.796Z,8.32
2022-08-16T17:01:02.703Z,9.50
2022-08-16T17:03:35.604Z,10.52
2022-08-16T17:06:15.052Z,9.32
2022-08-16T17:08:49.972Z,8.98
2022-08-16T17:11:23.633Z,8.30
2022-08-16T17:13:54.508Z,8.32
2022-08-16T17:16:32.963Z,8.35
2022-08-16T17:19:16.953Z,9.73
2022-08-16T17:21:51.707Z,9.93
2022-08-16T17:24:31.256Z,15.52
2022-08-16T17:27:09.598Z,9.68
2022-08-16T17:29:42.821Z,9.63
2022-08-16T17:32:34.226Z,9.27
2022-08-16T17:35:18.346Z,9.65
2022-08-16T17:37:50.789Z,9.68
2022-08-16T17:40:45.784Z,9.23
2022-08-16T17:43:16.582Z,10.13
2022-08-16T17:45:46.100Z,10.30
2022-08-16T17:48:18.080Z,10.43
2022-08-16T17:50:54.763Z,10.77
2022-08-16T17:53:24.954Z,10.43
2022-08-16T17:55:56.254Z,10.70
2022-08-16T17:58:27.964Z,11.23
2022-08-16T18:01:00.412Z,11.55
2022-08-16T18:04:03.018Z,10.57
2022-08-16T18:06:29.182Z,10.98
2022-08-16T18:09:09.279Z,10.38
2022-08-16T18:11:42.989Z,11.10
2022-08-16T18:14:13.334Z,11.52
2022-08-16T18:16:43.434Z,10.93
2022-08-16T18:19:13.527Z,12.63
2022-08-16T18:22:03.438Z,11.80
2022-08-16T18:24:33.504Z,12.82
2022-08-16T18:27:26.512Z,12.38
2022-08-16T18:29:56.169Z,13.18
2022-08-16T18:34:56.067Z,12.70
2022-08-16T18:37:28.059Z,12.00
2022-08-16T18:39:58.378Z,13.48
2022-08-16T18:42:30.103Z,12.35
2022-08-16T18:44:59.278Z,13.38
2022-08-16T18:47:30.489Z,13.55
2022-08-16T18:50:00.729Z,13.98
2022-08-16T18:52:32.141Z,13.70
2022-08-16T18:55:33.485Z,14.88
2022-08-16T18:58:04.425Z,13.80
2022-08-16T19:00:47.137Z,14.27
2022-08-16T19:03:29.759Z,13.63
2022-08-16T19:06:03.812Z,14.75
2022-08-16T19:09:07.438Z,12.57
2022-08-16T19:11:38.562Z,19.52
2022-08-16T19:16:43.382Z,12.75
2022-08-16T19:19:13.982Z,13.75
2022-08-16T19:21:44.667Z,13.05
2022-08-16T19:24:18.129Z,12.93
2022-08-16T19:26:51.578Z,12.77
2022-08-16T19:29:24.094Z,14.35
2022-08-16T19:31:54.485Z,15.43
2022-08-16T19:34:24.551Z,14.13
2022-08-16T19:36:56.555Z,12.93
2022-08-16T19:39:32.412Z,11.90
2022-08-16T19:42:13.552Z,13.43
2022-08-16T19:44:44.536Z,12.73
2022-08-16T19:47:14.590Z,12.77
2022-08-16T19:49:44.979Z,12.98
2022-08-16T19:52:18.514Z,12.93
2022-08-16T19:54:49.740Z,12.57
2022-08-16T19:57:24.029Z,12.77
2022-08-16T19:59:58.645Z,12.82
2022-08-16T20:02:36.074Z,12.77
2022-08-16T20:05:07.222Z,13.00
2022-08-16T20:07:38.375Z,12.35
2022-08-16T20:10:17.016Z,14.32
2022-08-16T20:12:58.391Z,12.02
2022-08-16T20:15:40.950Z,12.90
2022-08-16T20:18:21.301Z,13.07
2022-08-16T20:20:57.141Z,12.73
2022-08-16T20:23:27.190Z,12.90
2022-08-16T20:25:56.855Z,15.55
2022-08-16T20:28:53.804Z,12.68
2022-08-16T20:31:25.594Z,12.20
2022-08-16T20:34:08.441Z,12.27
2022-08-16T20:36:38.069Z,12.57
2022-08-16T20:39:08.027Z,12.02
2022-08-16T20:41:41.835Z,11.35
2022-08-16T20:44:14.210Z,13.38
2022-08-16T20:46:46.039Z,12.25
2022-08-16T20:49:15.588Z,12.38
2022-08-16T20:51:50.825Z,12.38
2022-08-16T20:54:23.535Z,13.30
2022-08-16T20:56:54.378Z,11.73
2022-08-16T20:59:25.848Z,12.77
2022-08-16T21:01:55.793Z,13.02
2022-08-16T21:04:27.919Z,12.90
2022-08-16T21:07:02.779Z,12.48
2022-08-16T21:09:34.189Z,12.48
2022-08-16T21:12:07.856Z,12.02
2022-08-16T21:14:45.179Z,11.80
2022-08-16T21:17:53.572Z,12.05
2022-08-16T21:20:37.343Z,13.23
2022-08-16T21:23:11.414Z,10.73
2022-08-16T21:26:11.203Z,11.77
2022-08-16T21:28:55.931Z,11.15
2022-08-16T21:31:27.310Z,12.35
2022-08-16T21:34:31.464Z,12.50
2022-08-16T21:37:09.687Z,11.13
2022-08-16T21:39:40.176Z,11.80
2022-08-16T21:42:15.082Z,11.43
2022-08-16T21:44:45.909Z,11.93
2022-08-16T21:47:19.746Z,12.20
2022-08-16T21:49:55.682Z,11.90
2022-08-16T21:52:26.858Z,11.80
2022-08-16T21:54:59.899Z,11.40
2022-08-16T22:00:23.699Z,11.27
2022-08-16T22:03:01.993Z,11.90
2022-08-16T22:05:45.897Z,11.30
2022-08-16T22:08:47.879Z,10.45
2022-08-16T22:11:23.486Z,10.32
2022-08-16T22:14:00.106Z,10.35
2022-08-16T22:16:40.287Z,10.48
2022-08-16T22:19:57.397Z,11.52
2022-08-16T22:22:26.738Z,11.13
2022-08-16T22:25:06.365Z,10.52
2022-08-16T22:27:36.901Z,10.23
2022-08-16T22:30:22.902Z,10.85
2022-08-16T22:33:09.695Z,9.77
2022-08-16T22:35:45.480Z,10.30
2022-08-16T22:41:04.138Z,10.23
2022-08-16T22:43:37.385Z,9.98
2022-08-16T22:46:10.591Z,9.73
2022-08-16T22:48:46.563Z,9.98
2022-08-16T22:51:17.503Z,10.18
2022-08-16T22:53:46.873Z,10.50
2022-08-16T22:56:28.670Z,10.40
2022-08-16T22:58:58.930Z,10.00
2022-08-16T23:01:28.332Z,10.80
2022-08-16T23:04:09.292Z,10.65
2022-08-16T23:09:28.118Z,11.70
2022-08-16T23:11:58.871Z,10.90
2022-08-16T23:14:31.485Z,10.90
2022-08-16T23:17:10.658Z,11.80
2022-08-16T23:19:40.851Z,11.63
2022-08-16T23:22:11.613Z,12.40
2022-08-16T23:24:55.053Z,13.20
2022-08-16T23:27:31.765Z,13.15
2022-08-16T23:30:08.888Z,12.93
2022-08-16T23:32:45.589Z,12.77
2022-08-16T23:35:16.801Z,12.68
2022-08-16T23:37:49.113Z,12.25
2022-08-16T23:40:19.452Z,12.48
2022-08-16T23:43:01.755Z,13.43
2022-08-16T23:45:38.898Z,13.00
2022-08-16T23:48:08.979Z,15.40
2022-08-16T23:50:41.179Z,16.58
2022-08-16T23:53:13.845Z,17.23
2022-08-16T23:55:46.220Z,18.67
2022-08-16T23:58:18.021Z,18.70
